Terminal Aerodrome Forecast
Issued by NWS Riverton, WY

Home | Current Version | Previous Version | Text Only | Print | Product List | Glossary On
Versions: 1 2 3 4 5 6 7 8 9 10 11 12 13
000
FTUS45 KRIW 222300
TAFRIW
TAF
KRIW 222321Z 2300/2324 19010KT P6SM SKC
     FM230400 30007KT P6SM SCT150 BKN250
     FM231200 25006KT P6SM SCT150 BKN200
     FM231800 25011KT P6SM SCT150 BKN200=

USA.gov is the U.S. government's official web portal to all federal, state and local government web resources and services.